createdAt,value
2022-10-14T00:00:08.723Z,99644.89
2022-10-14T00:03:03.290Z,99642.90
2022-10-14T00:05:35.062Z,99641.59
2022-10-14T00:08:06.920Z,99640.10
2022-10-14T00:10:41.060Z,99634.02
2022-10-14T00:13:12.755Z,99634.16
2022-10-14T00:15:44.981Z,99631.53
2022-10-14T00:18:16.900Z,99629.70
2022-10-14T00:20:57.946Z,99631.02
2022-10-14T00:23:30.093Z,99628.27
2022-10-14T00:26:02.388Z,99627.02
2022-10-14T00:28:35.461Z,99628.52
2022-10-14T00:31:07.308Z,99626.40
2022-10-14T00:33:39.030Z,99622.39
2022-10-14T00:36:13.854Z,99621.16
2022-10-14T00:38:47.659Z,99621.73
2022-10-14T00:41:21.933Z,99620.86
2022-10-14T00:44:02.235Z,99617.28
2022-10-14T00:46:36.061Z,99614.67
2022-10-14T00:49:15.563Z,99614.41
2022-10-14T00:51:53.481Z,99615.08
2022-10-14T00:54:30.419Z,99616.12
2022-10-14T00:57:03.387Z,99613.58
2022-10-14T00:59:37.275Z,99615.89
2022-10-14T01:02:09.392Z,99612.24
2022-10-14T01:04:44.011Z,99610.19
2022-10-14T01:07:25.342Z,99605.04
2022-10-14T01:10:04.289Z,99605.52
2022-10-14T01:12:45.294Z,99607.54
2022-10-14T01:15:26.419Z,99608.36
2022-10-14T01:18:09.864Z,99605.12
2022-10-14T01:20:54.983Z,99602.77
2022-10-14T01:23:55.474Z,99600.23
2022-10-14T01:26:49.668Z,99599.63
2022-10-14T01:29:34.954Z,99600.87
2022-10-14T01:32:14.336Z,99600.65
2022-10-14T01:34:53.518Z,99599.04
2022-10-14T01:37:30.090Z,99596.40
2022-10-14T01:40:06.796Z,99595.63
2022-10-14T01:42:42.208Z,99594.45
2022-10-14T01:45:20.103Z,99599.46
2022-10-14T01:47:54.487Z,99602.36
2022-10-14T01:50:29.182Z,99600.63
2022-10-14T01:53:06.276Z,99602.09
2022-10-14T01:55:43.479Z,99595.61
2022-10-14T01:58:18.116Z,99593.52
2022-10-14T02:00:50.034Z,99596.61
2022-10-14T02:03:21.732Z,99595.05
2022-10-14T02:06:00.781Z,99596.19
2022-10-14T02:08:46.529Z,99597.01
2022-10-14T02:11:21.141Z,99595.06
2022-10-14T02:14:09.194Z,99597.34
2022-10-14T02:16:49.355Z,99592.61
2022-10-14T02:19:30.561Z,99597.44
2022-10-14T02:22:06.969Z,99593.03
2022-10-14T02:24:41.989Z,99592.48
2022-10-14T02:27:17.500Z,99590.05
2022-10-14T02:29:50.667Z,99590.16
2022-10-14T02:32:25.381Z,99590.52
2022-10-14T02:34:59.938Z,99588.45
2022-10-14T02:37:34.040Z,99587.48
2022-10-14T02:40:12.799Z,99586.31
2022-10-14T02:42:44.688Z,99586.35
2022-10-14T02:45:17.402Z,99587.90
2022-10-14T02:47:50.005Z,99585.54
2022-10-14T02:50:22.202Z,99590.44
2022-10-14T02:52:56.424Z,99592.35
2022-10-14T02:55:28.275Z,99590.83
2022-10-14T02:57:59.969Z,99587.06
2022-10-14T03:00:31.827Z,99586.95
2022-10-14T03:03:03.669Z,99587.50
2022-10-14T03:05:35.683Z,99587.33
2022-10-14T03:08:07.837Z,99583.89
2022-10-14T03:10:39.496Z,99583.20
2022-10-14T03:13:12.857Z,99585.66
2022-10-14T03:15:48.865Z,99581.41
2022-10-14T03:18:21.696Z,99585.17
2022-10-14T03:20:53.876Z,99581.55
2022-10-14T03:23:28.886Z,99580.74
2022-10-14T03:26:00.566Z,99583.23
2022-10-14T03:28:38.000Z,99587.37
2022-10-14T03:31:23.968Z,99586.44
2022-10-14T03:34:14.444Z,99587.05
2022-10-14T03:36:46.672Z,99588.83
2022-10-14T03:39:18.507Z,99590.79
2022-10-14T03:41:53.742Z,99586.38
2022-10-14T03:44:30.805Z,99584.27
2022-10-14T03:47:23.499Z,99583.92
2022-10-14T03:49:55.907Z,99582.48
2022-10-14T03:52:32.448Z,99580.27
2022-10-14T03:55:10.443Z,99572.46
2022-10-14T03:57:42.304Z,99571.56
2022-10-14T04:00:17.485Z,99571.67
2022-10-14T04:02:51.260Z,99575.19
2022-10-14T04:05:37.245Z,99573.85
2022-10-14T04:08:14.022Z,99566.50
2022-10-14T04:10:54.538Z,99566.52
2022-10-14T04:13:26.854Z,99570.52
2022-10-14T04:15:58.864Z,99569.85
2022-10-14T04:18:39.337Z,99565.30
2022-10-14T04:21:14.830Z,99566.15
2022-10-14T04:23:47.367Z,99566.27
2022-10-14T04:26:20.943Z,99563.70
2022-10-14T04:28:52.910Z,99559.89
2022-10-14T04:31:35.160Z,99557.96
2022-10-14T04:34:07.999Z,99558.84
2022-10-14T04:36:42.428Z,99553.51
2022-10-14T04:39:27.156Z,99557.13
2022-10-14T04:41:59.130Z,99556.40
2022-10-14T04:44:31.021Z,99558.19
2022-10-14T04:47:05.745Z,99555.12
2022-10-14T04:49:37.576Z,99555.41
2022-10-14T04:52:14.406Z,99549.36
2022-10-14T04:55:07.506Z,99545.45
2022-10-14T04:57:43.918Z,99545.48
2022-10-14T05:00:18.014Z,99539.74
2022-10-14T05:03:04.676Z,99541.40
2022-10-14T05:05:38.941Z,99539.32
2022-10-14T05:08:10.713Z,99537.36
2022-10-14T05:10:45.731Z,99537.34
2022-10-14T05:13:21.629Z,99538.42
2022-10-14T05:16:00.108Z,99535.46
2022-10-14T05:18:32.239Z,99534.20
2022-10-14T05:21:07.572Z,99536.69
2022-10-14T05:23:57.495Z,99536.11
2022-10-14T05:26:30.605Z,99536.41
2022-10-14T05:29:03.498Z,99541.58
2022-10-14T05:31:35.489Z,99544.52
2022-10-14T05:34:15.832Z,99546.64
2022-10-14T05:36:48.247Z,99546.70
2022-10-14T05:39:20.978Z,99547.08
2022-10-14T05:41:53.127Z,99546.42
2022-10-14T05:44:28.191Z,99549.61
2022-10-14T05:47:00.311Z,99547.27
2022-10-14T05:49:32.430Z,99546.75
2022-10-14T05:52:06.343Z,99547.95
2022-10-14T05:54:38.459Z,99539.96
2022-10-14T05:57:11.007Z,99540.39
2022-10-14T05:59:43.473Z,99543.27
2022-10-14T06:02:15.429Z,99543.80
2022-10-14T06:04:47.516Z,99547.72
2022-10-14T06:07:19.949Z,99551.27
2022-10-14T06:09:51.873Z,99551.13
2022-10-14T06:12:25.758Z,99552.29
2022-10-14T06:14:57.892Z,99549.23
2022-10-14T06:20:18.614Z,99547.98
2022-10-14T06:22:50.481Z,99550.36
2022-10-14T06:25:22.829Z,99551.05
2022-10-14T06:27:55.236Z,99554.06
2022-10-14T06:30:27.473Z,99553.45
2022-10-14T06:33:00.161Z,99554.73
2022-10-14T06:35:32.251Z,99550.98
2022-10-14T06:38:07.613Z,99557.61
2022-10-14T06:40:40.463Z,99557.67
2022-10-14T06:43:12.950Z,99565.05
2022-10-14T06:45:45.610Z,99566.60
2022-10-14T06:48:17.566Z,99564.33
2022-10-14T06:50:49.772Z,99566.23
2022-10-14T06:53:22.328Z,99567.79
2022-10-14T06:56:00.621Z,99566.80
2022-10-14T06:58:32.354Z,99566.93
2022-10-14T07:01:07.014Z,99563.92
2022-10-14T07:03:39.636Z,99560.88
2022-10-14T07:06:12.351Z,99564.77
2022-10-14T07:08:45.370Z,99564.79
2022-10-14T07:17:18.197Z,99565.64
2022-10-14T07:19:50.081Z,99564.73
2022-10-14T07:22:22.336Z,99565.14
2022-10-14T07:24:54.933Z,99566.80
2022-10-14T07:27:28.322Z,99560.70
2022-10-14T07:30:01.870Z,99555.81
2022-10-14T07:32:37.018Z,99556.81
2022-10-14T07:35:10.959Z,99555.34
2022-10-14T07:37:45.637Z,99554.07
2022-10-14T07:40:17.800Z,99553.15
2022-10-14T07:42:49.766Z,99550.13
2022-10-14T07:45:21.844Z,99551.09
2022-10-14T07:47:53.995Z,99555.54
2022-10-14T07:50:26.061Z,99553.57
2022-10-14T07:53:01.180Z,99554.38
2022-10-14T07:55:33.525Z,99554.96
2022-10-14T07:58:05.438Z,99553.82
2022-10-14T08:00:38.553Z,99551.63
2022-10-14T08:03:10.554Z,99553.09
2022-10-14T08:05:42.743Z,99548.40
2022-10-14T08:08:15.757Z,99550.04
2022-10-14T08:10:48.013Z,99549.02
2022-10-14T08:13:19.906Z,99549.54
2022-10-14T08:15:51.898Z,99549.02
2022-10-14T08:18:26.966Z,99552.86
2022-10-14T08:20:59.449Z,99550.42
2022-10-14T08:23:33.000Z,99549.91
2022-10-14T08:26:05.512Z,99545.72
2022-10-14T08:28:37.926Z,99543.79
2022-10-14T08:31:10.051Z,99542.23
2022-10-14T08:33:41.907Z,99538.91
2022-10-14T08:36:14.573Z,99535.57
2022-10-14T08:38:46.824Z,99535.23
2022-10-14T08:41:31.030Z,99531.19
2022-10-14T08:44:15.286Z,99532.06
2022-10-14T08:46:52.475Z,99530.52
2022-10-14T08:49:30.863Z,99535.58
2022-10-14T08:52:05.038Z,99532.38
2022-10-14T08:54:42.732Z,99532.68
2022-10-14T08:57:20.173Z,99528.61
2022-10-14T08:59:51.955Z,99526.27
2022-10-14T09:02:37.110Z,99527.63
2022-10-14T09:05:14.762Z,99522.84
2022-10-14T09:10:31.409Z,99517.98
2022-10-14T09:13:15.509Z,99518.23
2022-10-14T09:15:51.444Z,99518.52
2022-10-14T09:18:33.886Z,99515.63
2022-10-14T09:21:27.762Z,99518.89
2022-10-14T09:24:16.712Z,99515.94
2022-10-14T09:26:52.522Z,99515.45
2022-10-14T09:29:28.752Z,99517.13
2022-10-14T09:32:07.517Z,99517.87
2022-10-14T09:34:42.523Z,99517.55
2022-10-14T09:37:27.097Z,99514.39
2022-10-14T09:40:03.456Z,99515.01
2022-10-14T09:42:45.570Z,99513.17
2022-10-14T09:45:19.990Z,99510.29
2022-10-14T09:47:57.199Z,99506.67
2022-10-14T09:50:41.412Z,99503.34
2022-10-14T09:53:26.476Z,99505.25
2022-10-14T09:56:01.103Z,99503.73
2022-10-14T09:58:37.463Z,99502.42
2022-10-14T10:01:15.936Z,99501.92
2022-10-14T10:03:49.289Z,99498.55
2022-10-14T10:06:26.002Z,99498.13
2022-10-14T10:09:02.111Z,99496.39
2022-10-14T10:11:37.677Z,99491.20
2022-10-14T10:14:23.525Z,99487.39
2022-10-14T10:17:19.535Z,99486.21
2022-10-14T10:20:07.162Z,99480.89
2022-10-14T10:22:39.570Z,99477.03
2022-10-14T10:25:28.272Z,99475.79
2022-10-14T10:28:02.462Z,99473.22
2022-10-14T10:30:44.899Z,99470.70
2022-10-14T10:33:29.349Z,99464.96
2022-10-14T10:36:24.175Z,99463.52
2022-10-14T10:39:03.669Z,99470.11
2022-10-14T10:41:48.538Z,99462.04
2022-10-14T10:44:40.647Z,99460.98
2022-10-14T10:47:24.896Z,99458.90
2022-10-14T10:50:18.257Z,99457.71
2022-10-14T10:53:11.235Z,99455.48
2022-10-14T10:55:56.585Z,99452.59
2022-10-14T10:58:44.398Z,99454.60
2022-10-14T11:01:21.447Z,99453.85
2022-10-14T11:04:08.755Z,99446.84
2022-10-14T11:07:07.980Z,99443.02
2022-10-14T11:10:08.762Z,99438.75
2022-10-14T11:12:50.431Z,99434.29
2022-10-14T11:15:33.125Z,99433.02
2022-10-14T11:18:10.683Z,99431.52
2022-10-14T11:20:55.805Z,99428.92
2022-10-14T11:23:49.604Z,99425.08
2022-10-14T11:26:38.335Z,99421.40
2022-10-14T11:29:27.423Z,99420.48
2022-10-14T11:32:11.699Z,99415.80
2022-10-14T11:34:54.214Z,99413.08
2022-10-14T11:37:45.331Z,99404.23
2022-10-14T11:40:25.756Z,99400.63
2022-10-14T11:43:08.848Z,99397.84
2022-10-14T11:45:53.739Z,99399.48
2022-10-14T11:48:33.935Z,99399.19
2022-10-14T11:51:17.310Z,99392.44
2022-10-14T11:54:00.985Z,99393.69
2022-10-14T11:56:38.749Z,99387.91
2022-10-14T11:59:23.919Z,99378.50
2022-10-14T12:02:02.048Z,99376.57
2022-10-14T12:04:38.383Z,99376.23
2022-10-14T12:07:17.644Z,99376.15
2022-10-14T12:09:59.024Z,99372.45
2022-10-14T12:12:33.601Z,99374.02
2022-10-14T12:15:14.817Z,99368.31
2022-10-14T12:17:51.257Z,99363.99
2022-10-14T12:20:31.277Z,99358.55
2022-10-14T12:23:06.291Z,99356.33
2022-10-14T12:25:48.734Z,99355.73
2022-10-14T12:28:22.166Z,99352.97
2022-10-14T12:31:14.032Z,99352.20
2022-10-14T12:34:25.641Z,99347.67
2022-10-14T12:36:57.414Z,99348.45
2022-10-14T12:39:42.980Z,99347.91
2022-10-14T12:42:16.995Z,99348.58
2022-10-14T12:44:52.559Z,99345.30
2022-10-14T12:47:30.990Z,99342.93
2022-10-14T12:50:04.947Z,99343.86
2022-10-14T12:52:39.771Z,99347.23
2022-10-14T12:55:18.841Z,99346.06
2022-10-14T12:57:56.437Z,99345.89
2022-10-14T13:00:39.228Z,99342.02
2022-10-14T13:03:22.836Z,99339.96
2022-10-14T13:06:30.946Z,99337.64
2022-10-14T13:09:33.255Z,99335.80
2022-10-14T13:12:46.912Z,99335.41
2022-10-14T13:15:53.242Z,99337.75
2022-10-14T13:18:52.643Z,99337.52
2022-10-14T13:21:53.504Z,99339.77
2022-10-14T13:24:29.332Z,99339.38
2022-10-14T13:27:15.541Z,99340.86
2022-10-14T13:30:03.846Z,99334.30
2022-10-14T13:32:42.025Z,99329.81
2022-10-14T13:35:25.485Z,99330.63
2022-10-14T13:38:01.306Z,99327.56
2022-10-14T13:40:35.644Z,99327.42
2022-10-14T13:43:16.629Z,99324.66
2022-10-14T13:45:53.414Z,99324.95
2022-10-14T13:48:31.419Z,99325.23
2022-10-14T13:51:36.553Z,99325.98
2022-10-14T13:54:24.100Z,99329.10
2022-10-14T13:57:38.359Z,99322.57
2022-10-14T14:02:54.512Z,99317.75
2022-10-14T14:05:36.021Z,99319.31
2022-10-14T14:11:16.366Z,99314.90
2022-10-14T14:13:59.833Z,99312.65
2022-10-14T14:16:36.325Z,99310.06
2022-10-14T14:19:18.447Z,99312.03
2022-10-14T14:21:50.122Z,99306.17
2022-10-14T14:24:25.736Z,99306.84
2022-10-14T14:26:58.262Z,99304.62
2022-10-14T14:29:33.116Z,99300.45
2022-10-14T14:32:08.162Z,99298.23
2022-10-14T14:34:43.703Z,99296.87
2022-10-14T14:40:21.906Z,99297.91
2022-10-14T14:42:56.138Z,99292.08
2022-10-14T14:45:30.574Z,99289.63
2022-10-14T14:48:07.751Z,99287.56
2022-10-14T14:50:43.485Z,99288.14
2022-10-14T14:53:20.570Z,99290.73
2022-10-14T14:56:05.843Z,99287.67
2022-10-14T14:58:44.976Z,99287.70
2022-10-14T15:01:25.459Z,99290.67
2022-10-14T15:04:13.718Z,99289.64
2022-10-14T15:06:53.486Z,99291.73
2022-10-14T15:09:31.348Z,99289.05
2022-10-14T15:12:05.325Z,99291.35
2022-10-14T15:14:46.248Z,99291.89
2022-10-14T15:17:34.230Z,99291.60
2022-10-14T15:20:29.593Z,99292.98
2022-10-14T15:23:01.321Z,99293.20
2022-10-14T15:25:34.163Z,99290.83
2022-10-14T15:28:06.006Z,99291.02
2022-10-14T15:30:55.669Z,99292.39
2022-10-14T15:33:28.391Z,99294.39
2022-10-14T15:36:02.802Z,99291.75
2022-10-14T15:38:35.546Z,99294.30
2022-10-14T15:41:07.798Z,99292.80
2022-10-14T15:43:39.988Z,99291.83
2022-10-14T15:46:32.760Z,99294.71
2022-10-14T15:49:12.861Z,99290.44
2022-10-14T15:51:44.594Z,99289.84
2022-10-14T15:54:18.786Z,99289.77
2022-10-14T15:56:50.485Z,99287.52
2022-10-14T15:59:22.228Z,99291.45
2022-10-14T16:01:54.735Z,99295.35
2022-10-14T16:04:28.071Z,99293.90
2022-10-14T16:06:59.983Z,99296.11
2022-10-14T16:09:31.737Z,99300.20
2022-10-14T16:12:05.101Z,99302.85
2022-10-14T16:14:37.352Z,99304.95
2022-10-14T16:17:09.627Z,99306.02
2022-10-14T16:19:43.959Z,99304.65
2022-10-14T16:22:17.572Z,99303.11
2022-10-14T16:24:49.274Z,99301.38
2022-10-14T16:27:21.378Z,99306.51
2022-10-14T16:29:53.377Z,99314.27
2022-10-14T16:32:25.281Z,99316.02
2022-10-14T16:34:57.151Z,99318.95
2022-10-14T16:37:28.853Z,99318.84
2022-10-14T16:40:01.065Z,99317.44
2022-10-14T16:42:32.774Z,99317.08
2022-10-14T16:45:05.014Z,99319.17
2022-10-14T16:47:36.894Z,99317.34
2022-10-14T16:50:11.657Z,99320.79
2022-10-14T16:53:03.634Z,99327.63
2022-10-14T16:55:37.830Z,99328.45
2022-10-14T16:58:09.494Z,99325.79
2022-10-14T17:00:42.305Z,99322.42
2022-10-14T17:03:15.232Z,99319.41
2022-10-14T17:05:49.547Z,99319.73
2022-10-14T17:08:21.896Z,99319.16
2022-10-14T17:10:59.620Z,99322.63
2022-10-14T17:13:31.710Z,99324.28
2022-10-14T17:16:04.545Z,99325.61
2022-10-14T17:18:37.227Z,99326.36
2022-10-14T17:21:12.233Z,99323.47
2022-10-14T17:23:45.364Z,99324.98
2022-10-14T17:26:18.996Z,99327.40
2022-10-14T17:28:51.307Z,99327.38
2022-10-14T17:31:23.751Z,99325.30
2022-10-14T17:33:56.009Z,99329.38
2022-10-14T17:36:30.852Z,99336.27
2022-10-14T17:39:03.306Z,99333.09
2022-10-14T17:41:35.172Z,99332.16
2022-10-14T17:44:07.039Z,99334.05
2022-10-14T17:46:38.787Z,99331.86
2022-10-14T17:49:11.018Z,99329.91
2022-10-14T17:51:42.732Z,99330.06
2022-10-14T17:54:14.725Z,99331.63
2022-10-14T17:56:46.398Z,99335.00
2022-10-14T17:59:18.175Z,99334.30
2022-10-14T18:02:05.533Z,99330.98
2022-10-14T18:04:37.545Z,99335.19
2022-10-14T18:07:09.342Z,99338.48
2022-10-14T18:09:41.091Z,99335.20
2022-10-14T18:12:12.773Z,99336.70
2022-10-14T18:14:44.803Z,99334.88
2022-10-14T18:17:16.930Z,99333.09
2022-10-14T18:19:52.132Z,99334.14
2022-10-14T18:22:24.266Z,99333.35
2022-10-14T18:24:56.100Z,99339.42
2022-10-14T18:27:28.137Z,99341.34
2022-10-14T18:29:59.875Z,99345.34
2022-10-14T18:32:31.583Z,99348.98
2022-10-14T18:35:03.566Z,99351.85
2022-10-14T18:37:35.743Z,99350.50
2022-10-14T18:40:09.117Z,99347.39
2022-10-14T18:42:41.017Z,99351.65
2022-10-14T18:45:13.152Z,99347.77
2022-10-14T18:47:45.190Z,99349.30
2022-10-14T18:50:17.072Z,99349.05
2022-10-14T18:52:48.907Z,99350.06
2022-10-14T18:55:20.624Z,99350.07
2022-10-14T18:57:53.551Z,99354.47
2022-10-14T19:00:26.920Z,99353.98
2022-10-14T19:02:58.771Z,99354.02
2022-10-14T19:05:33.237Z,99356.13
2022-10-14T19:08:07.565Z,99354.67
2022-10-14T19:10:39.522Z,99356.92
2022-10-14T19:13:12.274Z,99357.00
2022-10-14T19:15:46.126Z,99358.52
2022-10-14T19:18:21.818Z,99357.24
2022-10-14T19:20:56.825Z,99357.48
2022-10-14T19:23:28.617Z,99355.50
2022-10-14T19:26:01.233Z,99354.30
2022-10-14T19:28:33.134Z,99354.82
2022-10-14T19:31:09.116Z,99352.39
2022-10-14T19:33:42.525Z,99350.92
2022-10-14T19:36:16.075Z,99351.39
2022-10-14T19:38:52.136Z,99347.98
2022-10-14T19:41:24.290Z,99350.50
2022-10-14T19:43:57.112Z,99350.85
2022-10-14T19:46:30.383Z,99353.08
2022-10-14T19:49:04.369Z,99355.45
2022-10-14T19:51:36.720Z,99352.90
2022-10-14T19:54:08.694Z,99355.43
2022-10-14T19:56:40.760Z,99355.55
2022-10-14T19:59:14.210Z,99355.73
2022-10-14T20:01:46.041Z,99363.00
2022-10-14T20:04:20.804Z,99361.27
2022-10-14T20:06:54.626Z,99365.52
2022-10-14T20:09:26.381Z,99361.63
2022-10-14T20:11:58.459Z,99364.92
2022-10-14T20:14:30.515Z,99365.92
2022-10-14T20:17:03.859Z,99366.77
2022-10-14T20:19:39.904Z,99369.70
2022-10-14T20:22:12.176Z,99368.97
2022-10-14T20:24:44.525Z,99369.14
2022-10-14T20:27:16.307Z,99367.76
2022-10-14T20:29:48.140Z,99366.95
2022-10-14T20:32:19.981Z,99365.76
2022-10-14T20:34:51.745Z,99366.46
2022-10-14T20:37:27.271Z,99363.11
2022-10-14T20:39:59.978Z,99364.35
2022-10-14T20:42:33.917Z,99362.40
2022-10-14T20:45:06.981Z,99362.59
2022-10-14T20:47:38.670Z,99360.63
2022-10-14T20:50:11.764Z,99359.92
2022-10-14T20:52:43.878Z,99355.71
2022-10-14T20:55:16.445Z,99356.46
2022-10-14T20:57:48.164Z,99358.15
2022-10-14T21:00:20.377Z,99356.28
2022-10-14T21:02:53.369Z,99353.51
2022-10-14T21:05:25.068Z,99354.27
2022-10-14T21:07:56.933Z,99352.17
2022-10-14T21:10:30.540Z,99351.33
2022-10-14T21:13:02.313Z,99347.15
2022-10-14T21:15:34.376Z,99342.05
2022-10-14T21:18:06.655Z,99346.45
2022-10-14T21:20:38.398Z,99343.63
2022-10-14T21:23:10.105Z,99339.17
2022-10-14T21:25:41.866Z,99336.13
2022-10-14T21:28:13.900Z,99337.96
2022-10-14T21:30:46.012Z,99337.36
2022-10-14T21:33:17.796Z,99333.84
2022-10-14T21:35:49.474Z,99334.85
2022-10-14T21:38:21.278Z,99332.73
2022-10-14T21:40:53.206Z,99331.30
2022-10-14T21:43:25.466Z,99327.25
2022-10-14T21:45:57.235Z,99328.72
2022-10-14T21:48:28.919Z,99330.23
2022-10-14T21:51:09.246Z,99325.00
2022-10-14T21:53:42.580Z,99323.60
2022-10-14T21:56:15.615Z,99321.53
2022-10-14T21:58:47.460Z,99320.23
2022-10-14T22:01:22.710Z,99313.23
2022-10-14T22:03:58.158Z,99315.56
2022-10-14T22:06:30.872Z,99309.57
2022-10-14T22:09:05.171Z,99307.11
2022-10-14T22:11:39.761Z,99306.58
2022-10-14T22:14:14.982Z,99307.10
2022-10-14T22:16:47.233Z,99308.00
2022-10-14T22:19:19.892Z,99309.06
2022-10-14T22:21:51.612Z,99309.28
2022-10-14T22:24:23.326Z,99308.97
2022-10-14T22:26:55.669Z,99309.91
2022-10-14T22:29:27.470Z,99309.61
2022-10-14T22:31:59.508Z,99306.63
2022-10-14T22:34:31.313Z,99308.02
2022-10-14T22:37:03.015Z,99306.58
2022-10-14T22:39:34.767Z,99303.75
2022-10-14T22:42:06.655Z,99303.61
2022-10-14T22:44:38.768Z,99303.87
2022-10-14T22:47:10.866Z,99303.73
2022-10-14T22:49:42.560Z,99298.83
2022-10-14T22:52:14.218Z,99295.89
2022-10-14T22:54:45.943Z,99296.48
2022-10-14T22:57:18.173Z,99299.66
2022-10-14T22:59:49.909Z,99302.32
2022-10-14T23:02:21.999Z,99305.33
2022-10-14T23:04:53.956Z,99306.74
2022-10-14T23:07:25.779Z,99309.05
2022-10-14T23:09:57.459Z,99312.06
2022-10-14T23:12:29.473Z,99312.91
2022-10-14T23:15:01.170Z,99313.42
2022-10-14T23:17:33.291Z,99309.91
2022-10-14T23:20:05.154Z,99306.27
2022-10-14T23:22:37.167Z,99308.46
2022-10-14T23:25:10.254Z,99305.70
2022-10-14T23:27:42.290Z,99307.00
2022-10-14T23:30:14.546Z,99301.41
2022-10-14T23:32:46.246Z,99298.11
2022-10-14T23:35:18.381Z,99297.13
2022-10-14T23:37:50.356Z,99295.63
2022-10-14T23:40:22.046Z,99294.10
2022-10-14T23:42:53.671Z,99295.94
2022-10-14T23:45:25.370Z,99293.36
2022-10-14T23:47:57.253Z,99294.25
2022-10-14T23:50:29.925Z,99292.29
2022-10-14T23:53:01.806Z,99293.10
2022-10-14T23:55:33.573Z,99295.55
2022-10-14T23:58:05.245Z,99294.84
